createdAt,value
2019-04-27T00:00:15.280Z,99.90
2019-04-27T00:03:02.161Z,99.90
2019-04-27T00:05:43.407Z,99.90
2019-04-27T00:08:48.397Z,99.90
2019-04-27T00:11:25.089Z,99.90
2019-04-27T00:13:58.746Z,99.90
2019-04-27T00:16:50.474Z,99.90
2019-04-27T00:19:43.863Z,99.90
2019-04-27T00:22:35.893Z,99.90
2019-04-27T00:25:09.994Z,99.90
2019-04-27T00:27:43.674Z,99.90
2019-04-27T00:30:18.436Z,99.90
2019-04-27T00:32:53.523Z,99.90
2019-04-27T00:35:40.162Z,99.90
2019-04-27T00:38:47.256Z,99.90
2019-04-27T00:41:20.762Z,99.90
2019-04-27T00:43:53.873Z,99.90
2019-04-27T00:46:27.356Z,99.90
2019-04-27T00:49:01.343Z,99.90
2019-04-27T00:51:34.932Z,99.90
2019-04-27T00:54:08.109Z,99.90
2019-04-27T00:56:59.852Z,99.90
2019-04-27T01:00:05.152Z,99.90
2019-04-27T01:02:53.637Z,99.90
2019-04-27T01:05:28.188Z,99.90
2019-04-27T01:08:03.686Z,99.90
2019-04-27T01:10:36.936Z,99.90
2019-04-27T01:13:10.046Z,99.90
2019-04-27T01:15:43.485Z,99.90
2019-04-27T01:18:16.748Z,99.90
2019-04-27T01:20:50.505Z,99.90
2019-04-27T01:23:23.572Z,99.90
2019-04-27T01:26:14.847Z,99.90
2019-04-27T01:29:00.515Z,99.90
2019-04-27T01:31:34.160Z,99.90
2019-04-27T01:34:09.067Z,99.90
2019-04-27T01:36:42.573Z,99.90
2019-04-27T01:39:18.842Z,99.90
2019-04-27T01:41:52.328Z,99.90
2019-04-27T01:44:26.030Z,99.90
2019-04-27T01:47:00.965Z,99.90
2019-04-27T01:49:34.871Z,99.90
2019-04-27T01:52:09.624Z,99.90
2019-04-27T01:54:43.361Z,99.90
2019-04-27T01:57:16.556Z,99.90
2019-04-27T01:59:49.288Z,99.90
2019-04-27T02:02:41.466Z,99.90
2019-04-27T02:05:30.274Z,99.90
2019-04-27T02:08:04.249Z,99.90
2019-04-27T02:10:39.414Z,99.90
2019-04-27T02:13:12.608Z,99.90
2019-04-27T02:15:46.191Z,99.90
2019-04-27T02:18:19.511Z,99.90
2019-04-27T02:20:52.803Z,99.90
2019-04-27T02:23:26.117Z,99.90
2019-04-27T02:25:59.481Z,99.90
2019-04-27T02:28:55.260Z,99.90
2019-04-27T02:31:46.319Z,99.90
2019-04-27T02:34:22.905Z,99.90
2019-04-27T02:36:55.927Z,99.90
2019-04-27T02:39:29.789Z,99.90
2019-04-27T02:42:03.328Z,99.90
2019-04-27T02:44:40.431Z,99.90
2019-04-27T02:47:13.906Z,99.90
2019-04-27T02:49:50.376Z,99.90
2019-04-27T02:52:32.387Z,99.90
2019-04-27T02:55:06.445Z,99.90
2019-04-27T02:57:41.161Z,99.90
2019-04-27T03:00:14.705Z,99.90
2019-04-27T03:02:52.497Z,99.90
2019-04-27T03:05:34.768Z,99.90
2019-04-27T03:08:10.210Z,99.90
2019-04-27T03:10:43.071Z,99.90
2019-04-27T03:13:41.394Z,99.90
2019-04-27T03:16:33.462Z,99.90
2019-04-27T03:19:43.448Z,99.90
2019-04-27T03:22:39.799Z,99.90
2019-04-27T03:25:32.701Z,99.90
2019-04-27T03:28:14.188Z,99.90
2019-04-27T03:30:51.432Z,99.90
2019-04-27T03:33:22.886Z,99.90
2019-04-27T03:35:56.362Z,99.90
2019-04-27T03:38:30.216Z,99.90
2019-04-27T03:41:03.873Z,99.90
2019-04-27T03:43:36.954Z,99.90
2019-04-27T03:46:10.663Z,99.90
2019-04-27T03:48:44.966Z,99.90
2019-04-27T03:51:37.101Z,99.90
2019-04-27T03:54:29.643Z,99.90
2019-04-27T03:57:19.913Z,99.90
2019-04-27T04:00:00.096Z,99.90
2019-04-27T04:02:33.796Z,99.90
2019-04-27T04:05:09.800Z,99.90
2019-04-27T04:07:47.062Z,99.90
2019-04-27T04:10:21.521Z,99.90
2019-04-27T04:13:03.681Z,99.90
2019-04-27T04:15:44.352Z,99.90
2019-04-27T04:18:19.629Z,99.90
2019-04-27T04:20:52.797Z,99.90
2019-04-27T04:23:25.687Z,99.90
2019-04-27T04:25:59.734Z,99.90
2019-04-27T04:28:33.392Z,99.90
2019-04-27T04:31:10.842Z,99.90
2019-04-27T04:33:42.100Z,99.90
2019-04-27T04:36:15.326Z,99.90
2019-04-27T04:38:50.431Z,99.90
2019-04-27T04:41:35.187Z,99.90
2019-04-27T04:44:30.001Z,99.90
2019-04-27T04:47:30.618Z,99.90
2019-04-27T04:50:11.373Z,99.90
2019-04-27T04:52:42.346Z,99.90
2019-04-27T04:55:15.238Z,99.90
2019-04-27T04:57:49.339Z,99.90
2019-04-27T05:00:23.244Z,99.90
2019-04-27T05:02:56.966Z,99.90
2019-04-27T05:05:30.483Z,99.90
2019-04-27T05:08:05.185Z,99.90
2019-04-27T05:10:39.532Z,99.90
2019-04-27T05:13:13.318Z,99.90
2019-04-27T05:15:48.668Z,99.90
2019-04-27T05:18:22.431Z,99.90
2019-04-27T05:21:03.837Z,99.90
2019-04-27T05:23:38.795Z,99.90
2019-04-27T05:26:11.611Z,99.90
2019-04-27T05:28:49.076Z,99.90
2019-04-27T05:31:23.447Z,99.90
2019-04-27T05:33:59.344Z,99.90
2019-04-27T05:36:32.786Z,99.90
2019-04-27T05:39:09.593Z,99.90
2019-04-27T05:41:43.111Z,99.90
2019-04-27T05:44:45.671Z,99.90
2019-04-27T05:47:22.240Z,99.90
2019-04-27T05:50:18.385Z,99.90
2019-04-27T05:52:49.761Z,99.90
2019-04-27T05:55:31.642Z,99.90
2019-04-27T05:58:05.518Z,99.90
2019-04-27T06:00:39.421Z,99.90
2019-04-27T06:03:15.473Z,99.90
2019-04-27T06:05:48.962Z,99.90
2019-04-27T06:08:23.597Z,99.90
2019-04-27T06:10:56.911Z,99.90
2019-04-27T06:13:30.992Z,99.90
2019-04-27T06:16:04.588Z,99.90
2019-04-27T06:18:39.128Z,99.90
2019-04-27T06:21:12.792Z,99.90
2019-04-27T06:23:46.538Z,99.90
2019-04-27T06:26:24.649Z,99.90
2019-04-27T06:28:59.515Z,99.90
2019-04-27T06:31:34.434Z,99.90
2019-04-27T06:34:09.841Z,99.90
2019-04-27T06:36:45.358Z,99.90
2019-04-27T06:39:20.650Z,99.90
2019-04-27T06:41:55.685Z,99.90
2019-04-27T06:44:32.037Z,99.90
2019-04-27T06:47:05.958Z,99.90
2019-04-27T06:49:43.573Z,99.90
2019-04-27T06:52:18.690Z,99.90
2019-04-27T06:54:52.824Z,99.90
2019-04-27T06:57:26.986Z,99.90
2019-04-27T07:00:00.652Z,99.90
2019-04-27T07:02:34.017Z,99.90
2019-04-27T07:05:08.929Z,99.90
2019-04-27T07:07:43.164Z,99.90
2019-04-27T07:10:18.551Z,99.90
2019-04-27T07:12:54.520Z,99.90
2019-04-27T07:15:28.764Z,99.90
2019-04-27T07:18:04.080Z,99.90
2019-04-27T07:20:38.869Z,99.90
2019-04-27T07:23:13.937Z,99.90
2019-04-27T07:25:48.777Z,99.90
2019-04-27T07:28:22.948Z,99.90
2019-04-27T07:30:59.518Z,99.90
2019-04-27T07:33:32.959Z,99.90
2019-04-27T07:36:06.325Z,99.90
2019-04-27T07:38:45.658Z,99.90
2019-04-27T07:41:20.826Z,99.90
2019-04-27T07:44:01.523Z,99.90
2019-04-27T07:46:35.632Z,99.90
2019-04-27T07:49:09.603Z,99.90
2019-04-27T07:51:44.092Z,99.90
2019-04-27T07:54:18.987Z,99.90
2019-04-27T07:56:53.128Z,99.90
2019-04-27T07:59:27.358Z,99.90
2019-04-27T08:02:00.534Z,99.90
2019-04-27T08:04:33.770Z,99.90
2019-04-27T08:07:09.035Z,99.90
2019-04-27T08:09:42.727Z,99.90
2019-04-27T08:12:16.504Z,99.90
2019-04-27T08:14:50.057Z,99.90
2019-04-27T08:17:23.408Z,99.90
2019-04-27T08:19:59.358Z,99.90
2019-04-27T08:22:34.914Z,99.90
2019-04-27T08:25:09.528Z,99.90
2019-04-27T08:28:14.272Z,99.90
2019-04-27T08:31:10.868Z,99.90
2019-04-27T08:33:48.669Z,99.90
2019-04-27T08:36:22.730Z,99.90
2019-04-27T08:38:56.494Z,99.90
2019-04-27T08:41:30.722Z,99.90
2019-04-27T08:44:04.359Z,99.90
2019-04-27T08:46:38.577Z,99.90
2019-04-27T08:49:18.504Z,99.90
2019-04-27T08:51:59.240Z,99.90
2019-04-27T08:54:30.160Z,99.90
2019-04-27T08:57:04.382Z,99.90
2019-04-27T08:59:39.280Z,99.90
2019-04-27T09:02:13.635Z,99.90
2019-04-27T09:04:49.332Z,99.90
2019-04-27T09:07:41.339Z,99.90
2019-04-27T09:10:23.373Z,99.90
2019-04-27T09:13:16.184Z,99.90
2019-04-27T09:16:12.716Z,99.60
2019-04-27T09:18:46.832Z,98.90
2019-04-27T09:21:20.277Z,98.20
2019-04-27T09:23:53.838Z,96.70
2019-04-27T09:26:29.006Z,96.10
2019-04-27T09:29:03.675Z,97.00
2019-04-27T09:31:37.327Z,96.30
2019-04-27T09:34:12.769Z,94.50
2019-04-27T09:36:47.030Z,94.50
2019-04-27T09:39:20.849Z,94.50
2019-04-27T09:41:57.187Z,93.40
2019-04-27T09:44:31.562Z,94.70
2019-04-27T09:47:06.137Z,94.50
2019-04-27T09:49:40.382Z,94.10
2019-04-27T09:52:24.376Z,93.10
2019-04-27T09:54:51.244Z,92.30
2019-04-27T09:57:26.019Z,92.10
2019-04-27T09:59:59.738Z,92.20
2019-04-27T10:02:33.662Z,91.90
2019-04-27T10:05:09.357Z,91.50
2019-04-27T10:07:42.659Z,92.30
2019-04-27T10:10:16.834Z,90.90
2019-04-27T10:12:50.642Z,90.60
2019-04-27T10:15:24.329Z,90.40
2019-04-27T10:17:58.525Z,90.40
2019-04-27T10:20:31.960Z,90.10
2019-04-27T10:23:06.236Z,90.40
2019-04-27T10:25:40.833Z,89.30
2019-04-27T10:28:14.820Z,90.30
2019-04-27T10:30:48.052Z,90.00
2019-04-27T10:33:22.391Z,88.00
2019-04-27T10:35:56.533Z,86.20
2019-04-27T10:38:30.922Z,86.20
2019-04-27T10:41:05.940Z,84.50
2019-04-27T10:43:40.310Z,83.40
2019-04-27T10:46:15.673Z,83.70
2019-04-27T10:48:49.559Z,83.30
2019-04-27T10:51:22.899Z,83.60
2019-04-27T10:53:58.988Z,82.20
2019-04-27T10:56:35.940Z,82.70
2019-04-27T10:59:11.105Z,82.00
2019-04-27T11:01:45.950Z,81.80
2019-04-27T11:04:47.717Z,80.60
2019-04-27T11:07:23.195Z,80.80
2019-04-27T11:09:57.597Z,81.20
2019-04-27T11:12:32.684Z,78.20
2019-04-27T11:15:08.568Z,78.80
2019-04-27T11:17:45.971Z,79.60
2019-04-27T11:20:20.995Z,80.10
2019-04-27T11:23:06.571Z,79.50
2019-04-27T11:25:32.281Z,78.40
2019-04-27T11:28:07.311Z,78.10
2019-04-27T11:30:41.133Z,76.40
2019-04-27T11:33:16.169Z,77.30
2019-04-27T11:35:59.419Z,79.40
2019-04-27T11:38:34.265Z,81.20
2019-04-27T11:41:08.521Z,79.50
2019-04-27T11:43:44.007Z,78.00
2019-04-27T11:46:18.149Z,76.10
2019-04-27T11:48:53.146Z,75.30
2019-04-27T11:51:27.708Z,73.50
2019-04-27T11:54:02.388Z,74.10
2019-04-27T11:56:38.152Z,72.60
2019-04-27T11:59:13.537Z,72.50
2019-04-27T12:01:48.980Z,74.10
2019-04-27T12:04:29.348Z,74.20
2019-04-27T12:07:03.000Z,72.20
2019-04-27T12:09:38.295Z,72.70
2019-04-27T12:12:15.964Z,72.80
2019-04-27T12:14:53.592Z,72.20
2019-04-27T12:17:29.605Z,74.70
2019-04-27T12:20:04.571Z,75.30
2019-04-27T12:22:38.460Z,75.10
2019-04-27T12:25:16.020Z,73.70
2019-04-27T12:28:07.548Z,75.00
2019-04-27T12:31:02.291Z,75.70
2019-04-27T12:33:38.076Z,77.40
2019-04-27T12:36:13.608Z,76.90
2019-04-27T12:38:46.910Z,72.60
2019-04-27T12:41:20.757Z,71.20
2019-04-27T12:43:56.036Z,69.40
2019-04-27T12:46:30.485Z,68.20
2019-04-27T12:49:05.950Z,69.30
2019-04-27T12:51:42.291Z,70.80
2019-04-27T12:54:31.751Z,72.40
2019-04-27T12:57:23.473Z,73.40
2019-04-27T13:00:24.255Z,73.10
2019-04-27T13:02:59.616Z,73.10
2019-04-27T13:05:35.898Z,77.60
2019-04-27T13:08:09.814Z,80.20
2019-04-27T13:10:44.202Z,81.20
2019-04-27T13:13:18.181Z,85.30
2019-04-27T13:15:51.708Z,82.80
2019-04-27T13:18:25.869Z,89.10
2019-04-27T13:20:59.987Z,88.00
2019-04-27T13:23:34.970Z,88.40
2019-04-27T13:26:09.138Z,87.80
2019-04-27T13:28:44.310Z,87.80
2019-04-27T13:31:20.427Z,89.50
2019-04-27T13:33:55.783Z,90.50
2019-04-27T13:36:29.867Z,90.90
2019-04-27T13:39:06.461Z,93.00
2019-04-27T13:41:41.577Z,96.10
2019-04-27T13:44:19.187Z,98.30
2019-04-27T13:47:10.444Z,99.10
2019-04-27T13:50:00.843Z,99.20
2019-04-27T13:52:37.438Z,98.20
2019-04-27T13:55:11.395Z,97.60
2019-04-27T13:57:50.495Z,98.20
2019-04-27T14:00:21.881Z,98.30
2019-04-27T14:02:56.565Z,98.10
2019-04-27T14:05:30.675Z,94.30
2019-04-27T14:08:05.841Z,94.00
2019-04-27T14:10:40.383Z,93.00
2019-04-27T14:13:19.770Z,94.40
2019-04-27T14:15:54.511Z,95.20
2019-04-27T14:18:29.560Z,96.20
2019-04-27T14:21:04.423Z,93.60
2019-04-27T14:23:38.692Z,94.50
2019-04-27T14:26:16.249Z,93.80
2019-04-27T14:28:49.989Z,94.90
2019-04-27T14:31:24.147Z,95.40
2019-04-27T14:33:59.025Z,92.80
2019-04-27T14:36:33.330Z,91.50
2019-04-27T14:39:10.462Z,93.00
2019-04-27T14:41:44.430Z,94.70
2019-04-27T14:44:25.760Z,94.70
2019-04-27T14:46:59.817Z,96.10
2019-04-27T14:49:33.699Z,98.00
2019-04-27T14:52:12.518Z,98.70
2019-04-27T14:54:50.214Z,98.60
2019-04-27T14:57:22.788Z,99.40
2019-04-27T14:59:58.357Z,99.90
2019-04-27T15:02:31.688Z,99.90
2019-04-27T15:05:05.684Z,99.90
2019-04-27T15:07:39.968Z,99.90
2019-04-27T15:10:16.180Z,99.90
2019-04-27T15:12:50.970Z,99.90
2019-04-27T15:15:28.368Z,99.90
2019-04-27T15:18:05.197Z,99.90
2019-04-27T15:20:43.766Z,99.90
2019-04-27T15:23:17.156Z,99.90
2019-04-27T15:25:51.250Z,99.90
2019-04-27T15:28:29.146Z,99.90
2019-04-27T15:31:26.121Z,99.90
2019-04-27T15:34:23.402Z,99.90
2019-04-27T15:37:09.678Z,99.90
2019-04-27T15:40:08.375Z,99.90
2019-04-27T15:42:58.147Z,99.90
2019-04-27T15:45:32.649Z,99.90
2019-04-27T15:48:10.900Z,99.90
2019-04-27T15:50:44.864Z,99.90
2019-04-27T15:53:18.871Z,99.90
2019-04-27T15:55:53.614Z,99.90
2019-04-27T15:58:29.305Z,99.90
2019-04-27T16:01:09.110Z,99.90
2019-04-27T16:03:41.290Z,99.90
2019-04-27T16:06:15.593Z,99.90
2019-04-27T16:08:50.827Z,99.90
2019-04-27T16:11:24.520Z,99.90
2019-04-27T16:14:03.006Z,99.90
2019-04-27T16:16:38.140Z,99.90
2019-04-27T16:19:12.581Z,99.90
2019-04-27T16:21:53.512Z,99.90
2019-04-27T16:24:23.020Z,99.90
2019-04-27T16:27:02.900Z,99.90
2019-04-27T16:29:38.963Z,99.90
2019-04-27T16:32:13.155Z,99.90
2019-04-27T16:34:54.053Z,99.90
2019-04-27T16:37:56.248Z,99.90
2019-04-27T16:40:31.978Z,99.90
2019-04-27T16:43:06.381Z,99.90
2019-04-27T16:45:44.053Z,99.90
2019-04-27T16:48:18.523Z,99.90
2019-04-27T16:50:55.193Z,99.90
2019-04-27T16:53:30.206Z,99.90
2019-04-27T16:56:14.824Z,99.90
2019-04-27T16:58:56.454Z,99.90
2019-04-27T17:01:30.456Z,99.90
2019-04-27T17:04:06.340Z,99.90
2019-04-27T17:06:46.156Z,99.90
2019-04-27T17:09:18.955Z,99.90
2019-04-27T17:11:53.185Z,99.90
2019-04-27T17:14:51.073Z,99.90
2019-04-27T17:17:51.059Z,99.90
2019-04-27T17:20:25.535Z,99.90
2019-04-27T17:22:59.878Z,99.90
2019-04-27T17:25:39.766Z,99.90
2019-04-27T17:28:14.474Z,99.90
2019-04-27T17:30:48.993Z,99.90
2019-04-27T17:33:30.237Z,99.90
2019-04-27T17:36:04.219Z,99.90
2019-04-27T17:38:38.567Z,99.90
2019-04-27T17:41:13.261Z,99.90
2019-04-27T17:43:48.152Z,99.90
2019-04-27T17:46:22.934Z,99.90
2019-04-27T17:48:58.541Z,99.90
2019-04-27T17:51:35.163Z,99.90
2019-04-27T17:54:11.440Z,99.90
2019-04-27T17:56:49.425Z,99.90
2019-04-27T17:59:21.347Z,99.90
2019-04-27T18:02:01.338Z,99.90
2019-04-27T18:04:37.164Z,99.90
2019-04-27T18:07:12.295Z,99.90
2019-04-27T18:09:48.219Z,99.90
2019-04-27T18:12:25.505Z,99.90
2019-04-27T18:14:59.683Z,99.90
2019-04-27T18:17:49.945Z,99.90
2019-04-27T18:20:25.175Z,99.90
2019-04-27T18:23:10.670Z,99.90
2019-04-27T18:25:49.243Z,99.90
2019-04-27T18:28:31.832Z,99.90
2019-04-27T18:31:16.094Z,99.90
2019-04-27T18:33:48.962Z,99.90
2019-04-27T18:36:32.435Z,99.90
2019-04-27T18:39:10.459Z,99.90
2019-04-27T18:41:49.430Z,99.90
2019-04-27T18:44:28.056Z,99.90
2019-04-27T18:47:02.487Z,99.90
2019-04-27T18:50:07.379Z,99.90
2019-04-27T18:52:47.287Z,99.90
2019-04-27T18:55:20.627Z,99.90
2019-04-27T18:57:54.712Z,99.90
2019-04-27T19:00:29.575Z,99.90
2019-04-27T19:03:06.111Z,99.90
2019-04-27T19:05:40.711Z,99.90
2019-04-27T19:08:17.790Z,99.90
2019-04-27T19:10:55.264Z,99.90
2019-04-27T19:13:30.470Z,99.90
2019-04-27T19:16:05.813Z,99.90
2019-04-27T19:18:40.658Z,99.90
2019-04-27T19:21:20.921Z,99.90
2019-04-27T19:24:15.032Z,99.90
2019-04-27T19:27:17.911Z,99.90
2019-04-27T19:29:50.025Z,99.90
2019-04-27T19:32:25.411Z,99.90
2019-04-27T19:35:02.038Z,99.90
2019-04-27T19:37:36.019Z,99.90
2019-04-27T19:40:11.167Z,99.90
2019-04-27T19:42:45.140Z,99.90
2019-04-27T19:45:35.085Z,99.90
2019-04-27T19:48:18.178Z,99.90
2019-04-27T19:50:56.907Z,99.90
2019-04-27T19:53:52.075Z,99.90
2019-04-27T19:56:31.557Z,99.90
2019-04-27T19:59:18.811Z,99.90
2019-04-27T20:01:58.906Z,99.90
2019-04-27T20:04:42.978Z,99.90
2019-04-27T20:07:38.053Z,99.90
2019-04-27T20:10:32.210Z,99.90
2019-04-27T20:13:07.836Z,99.90
2019-04-27T20:15:45.467Z,99.90
2019-04-27T20:18:25.107Z,99.90
2019-04-27T20:21:05.800Z,99.90
2019-04-27T20:23:55.210Z,99.90
2019-04-27T20:26:42.031Z,99.90
2019-04-27T20:29:18.038Z,99.90
2019-04-27T20:31:58.247Z,99.90
2019-04-27T20:34:36.238Z,99.90
2019-04-27T20:37:31.391Z,99.90
2019-04-27T20:40:12.887Z,99.90
2019-04-27T20:43:27.361Z,99.90
2019-04-27T20:46:05.841Z,99.90
2019-04-27T20:48:46.400Z,99.90
2019-04-27T20:51:43.891Z,99.90
2019-04-27T20:54:30.630Z,99.90
2019-04-27T20:57:15.700Z,99.90
2019-04-27T20:59:54.597Z,99.90
2019-04-27T21:02:57.508Z,99.90
2019-04-27T21:05:46.593Z,99.90
2019-04-27T21:08:27.069Z,99.90
2019-04-27T21:11:09.235Z,99.90
2019-04-27T21:14:11.076Z,99.90
2019-04-27T21:16:51.886Z,99.90
2019-04-27T21:19:27.602Z,99.90
2019-04-27T21:22:16.268Z,99.90
2019-04-27T21:24:51.545Z,99.90
2019-04-27T21:27:32.373Z,99.90
2019-04-27T21:30:11.251Z,99.90
2019-04-27T21:33:01.206Z,99.90
2019-04-27T21:35:39.439Z,99.90
2019-04-27T21:38:18.563Z,99.90
2019-04-27T21:40:56.803Z,99.90
2019-04-27T21:43:45.758Z,99.90
2019-04-27T21:46:31.617Z,99.90
2019-04-27T21:49:15.513Z,99.90
2019-04-27T21:52:14.699Z,99.90
2019-04-27T21:54:55.002Z,99.90
2019-04-27T21:57:32.928Z,99.90
2019-04-27T22:00:28.662Z,99.90
2019-04-27T22:03:12.306Z,99.90
2019-04-27T22:05:52.190Z,99.90
2019-04-27T22:08:38.102Z,99.90
2019-04-27T22:11:18.577Z,99.90
2019-04-27T22:13:58.978Z,99.90
2019-04-27T22:16:36.688Z,99.90
2019-04-27T22:19:22.357Z,99.90
2019-04-27T22:22:05.896Z,99.90
2019-04-27T22:24:44.159Z,99.90
2019-04-27T22:27:23.073Z,99.90
2019-04-27T22:30:06.195Z,99.90
2019-04-27T22:32:51.505Z,99.90
2019-04-27T22:35:33.839Z,99.90
2019-04-27T22:38:21.273Z,99.90
2019-04-27T22:41:13.010Z,99.90
2019-04-27T22:44:18.436Z,99.90
2019-04-27T22:47:13.303Z,99.90
2019-04-27T22:49:55.451Z,99.90
2019-04-27T22:52:34.197Z,99.90
2019-04-27T22:55:11.781Z,99.90
2019-04-27T22:57:56.350Z,99.90
2019-04-27T23:00:52.177Z,99.90
2019-04-27T23:03:34.168Z,99.90
2019-04-27T23:06:11.660Z,99.90
2019-04-27T23:08:51.492Z,99.90
2019-04-27T23:11:38.678Z,99.90
2019-04-27T23:14:37.373Z,99.90
2019-04-27T23:17:31.539Z,99.90
2019-04-27T23:20:11.609Z,99.90
2019-04-27T23:22:55.005Z,99.90
2019-04-27T23:25:31.582Z,99.90
2019-04-27T23:28:14.896Z,99.90
2019-04-27T23:31:06.808Z,99.90
2019-04-27T23:33:46.888Z,99.90
2019-04-27T23:36:26.010Z,99.90
2019-04-27T23:39:06.104Z,99.90
2019-04-27T23:41:45.418Z,99.90
2019-04-27T23:44:36.752Z,99.90
2019-04-27T23:47:19.963Z,99.90
2019-04-27T23:50:03.854Z,99.90
2019-04-27T23:53:08.841Z,99.90
2019-04-27T23:55:52.665Z,99.90
2019-04-27T23:58:31.745Z,99.90
